createdAt,value
2022-12-20T00:01:31.333Z,28.30
2022-12-20T00:04:02.437Z,28.15
2022-12-20T00:06:30.428Z,26.40
2022-12-20T00:09:02.123Z,27.52
2022-12-20T00:11:30.059Z,26.88
2022-12-20T00:13:58.427Z,26.25
2022-12-20T00:16:28.276Z,26.30
2022-12-20T00:19:02.574Z,27.27
2022-12-20T00:21:32.082Z,27.67
2022-12-20T00:24:02.853Z,27.42
2022-12-20T00:26:32.717Z,26.20
2022-12-20T00:29:00.831Z,27.40
2022-12-20T00:31:30.131Z,26.42
2022-12-20T00:33:59.295Z,28.08
2022-12-20T00:36:29.558Z,28.25
2022-12-20T00:38:58.279Z,27.98
2022-12-20T00:41:28.002Z,27.05
2022-12-20T00:43:55.816Z,27.67
2022-12-20T00:46:24.841Z,27.30
2022-12-20T00:48:53.674Z,25.65
2022-12-20T00:51:24.936Z,26.45
2022-12-20T00:53:52.703Z,26.55
2022-12-20T00:56:20.469Z,27.13
2022-12-20T00:58:47.885Z,26.88
2022-12-20T01:01:26.201Z,26.50
2022-12-20T01:03:54.521Z,26.02
2022-12-20T01:06:24.213Z,26.38
2022-12-20T01:08:53.159Z,25.70
2022-12-20T01:11:23.163Z,27.35
2022-12-20T01:13:53.096Z,27.75
2022-12-20T01:16:26.626Z,27.00
2022-12-20T01:18:55.530Z,25.75
2022-12-20T01:21:26.055Z,27.65
2022-12-20T01:23:54.382Z,26.45
2022-12-20T01:26:24.818Z,26.60
2022-12-20T01:28:54.987Z,27.05
2022-12-20T01:31:23.442Z,25.85
2022-12-20T01:33:52.454Z,26.80
2022-12-20T01:36:25.416Z,26.02
2022-12-20T01:39:05.210Z,25.40
2022-12-20T01:41:33.795Z,24.77
2022-12-20T01:44:06.830Z,25.85
2022-12-20T01:46:39.726Z,25.40
2022-12-20T01:49:20.329Z,25.60
2022-12-20T01:51:55.952Z,25.40
2022-12-20T01:54:36.599Z,25.98
2022-12-20T01:57:09.076Z,25.55
2022-12-20T01:59:39.890Z,24.13
2022-12-20T02:02:11.144Z,25.88
2022-12-20T02:04:39.165Z,25.42
2022-12-20T02:07:08.017Z,24.88
2022-12-20T02:09:37.858Z,26.05
2022-12-20T02:12:17.953Z,27.05
2022-12-20T02:15:10.223Z,25.23
2022-12-20T02:17:40.272Z,23.90
2022-12-20T02:20:16.730Z,22.77
2022-12-20T02:23:06.028Z,23.02
2022-12-20T02:25:46.562Z,22.50
2022-12-20T02:28:32.754Z,21.63
2022-12-20T02:31:05.429Z,22.70
2022-12-20T02:33:32.834Z,22.63
2022-12-20T02:36:00.498Z,22.35
2022-12-20T02:38:32.689Z,23.92
2022-12-20T02:41:30.410Z,23.27
2022-12-20T02:44:23.710Z,23.13
2022-12-20T02:46:52.190Z,21.90
2022-12-20T02:49:26.300Z,24.48
2022-12-20T02:51:57.403Z,23.42
2022-12-20T02:54:25.326Z,23.33
2022-12-20T02:57:10.177Z,23.17
2022-12-20T02:59:45.685Z,25.65
2022-12-20T03:02:13.332Z,25.27
2022-12-20T03:04:42.053Z,24.67
2022-12-20T03:07:13.559Z,24.65
2022-12-20T03:09:43.209Z,23.58
2022-12-20T03:12:14.382Z,24.30
2022-12-20T03:14:42.311Z,25.13
2022-12-20T03:17:11.491Z,25.52
2022-12-20T03:19:39.141Z,25.38
2022-12-20T03:22:06.866Z,24.95
2022-12-20T03:24:34.542Z,25.02
2022-12-20T03:27:06.586Z,25.27
2022-12-20T03:29:34.027Z,26.27
2022-12-20T03:32:01.511Z,25.50
2022-12-20T03:34:29.993Z,24.90
2022-12-20T03:36:57.457Z,25.38
2022-12-20T03:39:24.949Z,25.13
2022-12-20T03:41:54.396Z,25.13
2022-12-20T03:44:21.989Z,25.35
2022-12-20T03:46:50.295Z,26.20
2022-12-20T03:49:18.715Z,24.65
2022-12-20T03:51:50.161Z,25.80
2022-12-20T03:54:19.085Z,24.13
2022-12-20T03:57:09.859Z,25.33
2022-12-20T03:59:37.457Z,25.23
2022-12-20T04:02:06.578Z,25.58
2022-12-20T04:04:37.553Z,24.33
2022-12-20T04:07:05.035Z,24.00
2022-12-20T04:09:33.125Z,24.95
2022-12-20T04:12:06.552Z,21.42
2022-12-20T04:14:37.400Z,22.13
2022-12-20T04:17:05.494Z,20.13
2022-12-20T04:19:33.955Z,20.55
2022-12-20T04:22:05.540Z,18.58
2022-12-20T04:24:49.216Z,19.02
2022-12-20T04:27:25.353Z,20.48
2022-12-20T04:29:54.530Z,20.17
2022-12-20T04:32:22.977Z,20.38
2022-12-20T04:34:50.725Z,19.23
2022-12-20T04:37:18.829Z,18.73
2022-12-20T04:39:51.147Z,17.95
2022-12-20T04:42:22.176Z,18.85
2022-12-20T04:44:51.248Z,18.30
2022-12-20T04:47:24.203Z,17.83
2022-12-20T04:49:53.231Z,17.38
2022-12-20T04:52:45.536Z,15.98
2022-12-20T04:55:16.309Z,15.27
2022-12-20T04:57:44.123Z,14.68
2022-12-20T05:00:17.785Z,15.10
2022-12-20T05:02:51.707Z,14.85
2022-12-20T05:05:21.395Z,14.50
2022-12-20T05:07:53.561Z,15.38
2022-12-20T05:10:21.498Z,15.02
2022-12-20T05:12:50.464Z,13.55
2022-12-20T05:15:40.199Z,16.05
2022-12-20T05:18:07.622Z,16.83
2022-12-20T05:20:45.655Z,17.13
2022-12-20T05:23:31.675Z,18.67
2022-12-20T05:26:18.676Z,20.15
2022-12-20T05:28:47.550Z,20.30
2022-12-20T05:31:15.423Z,20.50
2022-12-20T05:33:43.989Z,19.90
2022-12-20T05:36:13.180Z,19.95
2022-12-20T05:38:41.209Z,19.65
2022-12-20T05:41:14.307Z,18.63
2022-12-20T05:43:42.761Z,18.92
2022-12-20T05:46:11.570Z,19.05
2022-12-20T05:48:51.058Z,22.13
2022-12-20T05:51:18.494Z,22.20
2022-12-20T05:54:01.918Z,24.02
2022-12-20T05:56:54.358Z,22.08
2022-12-20T05:59:27.322Z,23.17
2022-12-20T06:01:56.576Z,23.10
2022-12-20T06:04:25.102Z,23.10
2022-12-20T06:06:55.968Z,24.85
2022-12-20T06:09:23.956Z,26.33
2022-12-20T06:12:04.270Z,26.17
2022-12-20T06:14:33.918Z,25.98
2022-12-20T06:17:02.482Z,26.33
2022-12-20T06:19:31.356Z,26.27
2022-12-20T06:22:00.277Z,26.27
2022-12-20T06:24:44.354Z,25.52
2022-12-20T06:27:15.611Z,25.88
2022-12-20T06:29:49.465Z,25.80
2022-12-20T06:32:17.582Z,27.50
2022-12-20T06:34:45.025Z,26.85
2022-12-20T06:37:12.766Z,26.70
2022-12-20T06:39:40.525Z,27.67
2022-12-20T06:42:09.791Z,26.70
2022-12-20T06:44:39.806Z,27.52
2022-12-20T06:47:07.815Z,28.25
2022-12-20T06:49:35.239Z,27.08
2022-12-20T06:52:08.093Z,27.98
2022-12-20T06:54:50.731Z,26.23
2022-12-20T06:57:20.100Z,28.83
2022-12-20T06:59:48.810Z,28.50
2022-12-20T07:02:16.518Z,30.67
2022-12-20T07:04:44.217Z,29.35
2022-12-20T07:07:13.365Z,30.48
2022-12-20T07:09:41.578Z,30.17
2022-12-20T07:12:10.162Z,31.02
2022-12-20T07:14:37.583Z,31.33
2022-12-20T07:17:07.637Z,30.90
2022-12-20T07:19:36.548Z,34.30
2022-12-20T07:22:05.736Z,32.65
2022-12-20T07:24:34.301Z,33.05
2022-12-20T07:27:02.133Z,33.75
2022-12-20T07:29:29.545Z,35.78
2022-12-20T07:32:00.232Z,35.78
2022-12-20T07:34:27.727Z,34.63
2022-12-20T07:36:55.169Z,35.88
2022-12-20T07:39:22.681Z,35.75
2022-12-20T07:41:53.821Z,34.50
2022-12-20T07:44:23.319Z,35.40
2022-12-20T07:46:50.829Z,34.90
2022-12-20T07:49:20.340Z,37.30
2022-12-20T07:51:53.232Z,36.55
2022-12-20T07:54:24.986Z,35.22
2022-12-20T07:56:56.089Z,37.00
2022-12-20T07:59:31.585Z,36.97
2022-12-20T08:02:04.375Z,34.53
2022-12-20T08:04:34.236Z,35.70
2022-12-20T08:07:04.876Z,34.78
2022-12-20T08:09:36.808Z,35.78
2022-12-20T08:14:32.046Z,31.88
2022-12-20T08:16:59.531Z,34.83
2022-12-20T08:19:32.472Z,34.40
2022-12-20T08:22:00.400Z,33.35
2022-12-20T08:24:28.019Z,34.38
2022-12-20T08:26:55.490Z,34.58
2022-12-20T08:29:23.276Z,36.38
2022-12-20T08:31:51.051Z,35.58
2022-12-20T08:34:19.081Z,37.08
2022-12-20T08:36:46.555Z,36.38
2022-12-20T08:39:14.050Z,37.35
2022-12-20T08:41:41.349Z,36.75
2022-12-20T08:44:10.324Z,36.13
2022-12-20T08:46:56.524Z,36.65
2022-12-20T08:49:24.004Z,37.35
2022-12-20T08:51:52.449Z,34.97
2022-12-20T08:54:19.982Z,36.03
2022-12-20T08:56:47.740Z,34.75
2022-12-20T08:59:15.606Z,33.22
2022-12-20T09:01:42.997Z,35.22
2022-12-20T09:04:11.864Z,35.15
2022-12-20T09:06:39.384Z,34.78
2022-12-20T09:09:07.355Z,35.65
2022-12-20T09:11:34.848Z,35.45
2022-12-20T09:14:02.322Z,34.88
2022-12-20T09:16:32.386Z,35.45
2022-12-20T09:19:05.482Z,33.08
2022-12-20T09:21:34.898Z,34.95
2022-12-20T09:24:02.492Z,35.95
2022-12-20T09:26:30.878Z,34.67
2022-12-20T09:29:05.394Z,34.08
2022-12-20T09:31:32.933Z,34.55
2022-12-20T09:34:01.015Z,33.70
2022-12-20T09:36:30.011Z,32.42
2022-12-20T09:38:57.849Z,32.40
2022-12-20T09:41:27.926Z,32.85
2022-12-20T09:43:56.136Z,35.00
2022-12-20T09:46:25.645Z,34.50
2022-12-20T09:48:56.579Z,35.22
2022-12-20T09:51:55.140Z,34.95
2022-12-20T09:54:22.545Z,34.05
2022-12-20T09:57:19.144Z,35.40
2022-12-20T09:59:49.871Z,35.40
2022-12-20T10:05:16.941Z,37.03
2022-12-20T10:08:07.024Z,37.10
2022-12-20T10:11:11.504Z,35.08
2022-12-20T10:14:00.227Z,35.05
2022-12-20T10:16:47.051Z,41.72
2022-12-20T10:19:26.620Z,38.55
2022-12-20T10:22:14.316Z,36.97
2022-12-20T10:24:48.234Z,35.63
2022-12-20T10:27:18.763Z,36.28
2022-12-20T10:29:49.445Z,36.97
2022-12-20T10:32:22.143Z,34.50
2022-12-20T10:37:19.487Z,34.65
2022-12-20T10:39:51.933Z,36.20
2022-12-20T10:42:40.707Z,33.72
2022-12-20T10:45:38.718Z,35.60
2022-12-20T10:48:24.257Z,35.85
2022-12-20T10:51:16.778Z,35.65
2022-12-20T10:54:02.566Z,36.58
2022-12-20T10:56:32.588Z,33.15
2022-12-20T10:59:22.749Z,30.35
2022-12-20T11:01:51.051Z,29.85
2022-12-20T11:04:21.813Z,29.73
2022-12-20T11:06:49.319Z,30.52
2022-12-20T11:09:19.689Z,30.52
2022-12-20T11:12:17.973Z,30.85
2022-12-20T11:14:47.437Z,31.10
2022-12-20T11:17:14.792Z,31.52
2022-12-20T11:19:56.603Z,31.08
2022-12-20T11:22:44.987Z,31.00
2022-12-20T11:25:15.085Z,31.10
2022-12-20T11:28:19.484Z,30.77
2022-12-20T11:31:00.443Z,28.83
2022-12-20T11:33:55.971Z,30.97
2022-12-20T11:36:38.345Z,31.77
2022-12-20T11:39:17.978Z,31.55
2022-12-20T11:41:55.482Z,31.95
2022-12-20T11:45:03.304Z,27.25
2022-12-20T11:47:53.231Z,29.33
2022-12-20T11:50:50.860Z,28.95
2022-12-20T11:53:25.252Z,27.42
2022-12-20T11:55:58.339Z,28.20
2022-12-20T11:58:35.536Z,30.67
2022-12-20T12:01:13.942Z,29.33
2022-12-20T12:03:50.749Z,32.03
2022-12-20T12:06:25.709Z,34.95
2022-12-20T12:09:11.537Z,33.75
2022-12-20T12:12:06.680Z,32.42
2022-12-20T12:14:43.679Z,32.05
2022-12-20T12:17:24.987Z,33.65
2022-12-20T12:20:01.552Z,28.60
2022-12-20T12:22:35.554Z,26.48
2022-12-20T12:25:09.237Z,26.15
2022-12-20T12:27:36.588Z,26.67
2022-12-20T12:30:07.179Z,27.45
2022-12-20T12:32:46.371Z,27.25
2022-12-20T12:35:43.090Z,27.60
2022-12-20T12:39:02.372Z,27.17
2022-12-20T12:41:36.192Z,27.27
2022-12-20T12:44:18.762Z,28.83
2022-12-20T12:46:55.340Z,28.83
2022-12-20T12:49:28.135Z,29.02
2022-12-20T12:51:59.175Z,29.42
2022-12-20T12:54:30.552Z,32.03
2022-12-20T12:57:14.832Z,32.55
2022-12-20T12:59:48.440Z,33.97
2022-12-20T13:02:16.537Z,35.60
2022-12-20T13:05:06.444Z,37.05
2022-12-20T13:07:35.190Z,37.53
2022-12-20T13:10:25.687Z,37.42
2022-12-20T13:12:58.472Z,36.42
2022-12-20T13:15:25.789Z,36.92
2022-12-20T13:17:53.186Z,33.55
2022-12-20T13:20:25.155Z,34.78
2022-12-20T13:25:44.516Z,33.78
2022-12-20T13:28:24.536Z,33.28
2022-12-20T13:31:04.905Z,33.88
2022-12-20T13:33:45.851Z,32.60
2022-12-20T13:36:13.231Z,32.58
2022-12-20T13:38:44.925Z,34.45
2022-12-20T13:41:35.180Z,34.50
2022-12-20T13:44:23.801Z,33.72
2022-12-20T13:47:14.557Z,33.60
2022-12-20T13:49:43.781Z,31.65
2022-12-20T13:52:11.221Z,31.85
2022-12-20T13:54:52.366Z,33.58
2022-12-20T13:57:32.062Z,33.25
2022-12-20T14:00:07.087Z,32.55
2022-12-20T14:02:41.536Z,32.70
2022-12-20T14:05:33.316Z,32.50
2022-12-20T14:08:06.088Z,33.00
2022-12-20T14:10:35.277Z,31.95
2022-12-20T14:13:03.267Z,32.60
2022-12-20T14:15:33.243Z,32.60
2022-12-20T14:18:18.587Z,34.60
2022-12-20T14:20:50.853Z,32.55
2022-12-20T14:23:32.494Z,33.05
2022-12-20T14:26:02.255Z,32.08
2022-12-20T14:28:37.766Z,35.40
2022-12-20T14:31:07.876Z,34.53
2022-12-20T14:33:40.388Z,34.30
2022-12-20T14:36:16.772Z,36.60
2022-12-20T14:38:50.082Z,35.33
2022-12-20T14:41:44.088Z,33.90
2022-12-20T14:44:20.728Z,34.63
2022-12-20T14:46:54.139Z,36.40
2022-12-20T14:49:22.404Z,35.10
2022-12-20T14:51:51.548Z,35.88
2022-12-20T14:55:05.789Z,35.75
2022-12-20T14:57:26.316Z,35.03
2022-12-20T15:00:12.270Z,34.63
2022-12-20T15:02:41.388Z,39.30
2022-12-20T15:05:35.692Z,40.08
2022-12-20T15:08:39.070Z,38.65
2022-12-20T15:11:09.008Z,37.40
2022-12-20T15:13:42.635Z,37.65
2022-12-20T15:16:21.387Z,40.42
2022-12-20T15:18:54.031Z,37.20
2022-12-20T15:21:41.004Z,39.35
2022-12-20T15:24:17.080Z,37.33
2022-12-20T15:26:44.777Z,36.95
2022-12-20T15:29:21.469Z,37.53
2022-12-20T15:31:50.040Z,38.38
2022-12-20T15:34:28.963Z,38.70
2022-12-20T15:36:59.941Z,37.42
2022-12-20T15:39:28.048Z,38.88
2022-12-20T15:41:58.119Z,39.35
2022-12-20T15:44:30.591Z,38.72
2022-12-20T15:47:00.841Z,39.00
2022-12-20T15:49:32.645Z,38.90
2022-12-20T15:52:00.139Z,38.45
2022-12-20T15:54:32.889Z,36.10
2022-12-20T15:57:03.450Z,37.90
2022-12-20T16:02:27.112Z,37.72
2022-12-20T16:04:55.569Z,39.33
2022-12-20T16:07:23.589Z,37.58
2022-12-20T16:09:51.223Z,38.15
2022-12-20T16:12:26.918Z,38.40
2022-12-20T16:14:55.251Z,38.88
2022-12-20T16:17:22.813Z,41.50
2022-12-20T16:19:50.729Z,39.10
2022-12-20T16:22:22.355Z,39.08
2022-12-20T16:24:50.055Z,38.13
2022-12-20T16:27:17.730Z,39.47
2022-12-20T16:29:45.466Z,38.53
2022-12-20T16:32:22.240Z,39.30
2022-12-20T16:34:51.098Z,40.85
2022-12-20T16:37:18.451Z,39.72
2022-12-20T16:39:48.708Z,61.85
2022-12-20T16:42:19.403Z,42.22
2022-12-20T16:44:51.355Z,40.47
2022-12-20T16:49:52.211Z,37.30
2022-12-20T16:52:22.304Z,40.95
2022-12-20T16:54:50.594Z,40.28
2022-12-20T16:57:18.131Z,41.40
2022-12-20T16:59:45.611Z,40.53
2022-12-20T17:02:25.627Z,38.42
2022-12-20T17:04:53.141Z,37.55
2022-12-20T17:07:21.230Z,37.50
2022-12-20T17:12:33.327Z,35.63
2022-12-20T17:15:00.685Z,34.97
2022-12-20T17:17:28.035Z,33.47
2022-12-20T17:19:55.485Z,31.70
2022-12-20T17:22:23.042Z,30.10
2022-12-20T17:24:50.520Z,29.45
2022-12-20T17:27:17.823Z,29.60
2022-12-20T17:29:45.183Z,28.58
2022-12-20T17:32:23.150Z,29.13
2022-12-20T17:34:51.253Z,30.00
2022-12-20T17:37:18.803Z,31.17
2022-12-20T17:39:49.463Z,29.02
2022-12-20T17:42:17.209Z,27.73
2022-12-20T17:44:46.251Z,31.73
2022-12-20T17:47:14.060Z,30.73
2022-12-20T17:49:41.414Z,30.23
2022-12-20T17:52:14.336Z,28.83
2022-12-20T17:54:41.755Z,30.05
2022-12-20T17:57:16.663Z,30.02
2022-12-20T17:59:44.415Z,28.05
2022-12-20T18:02:22.086Z,30.65
2022-12-20T18:04:50.127Z,32.53
2022-12-20T18:07:17.589Z,31.40
2022-12-20T18:09:47.695Z,30.92
2022-12-20T18:12:15.387Z,32.08
2022-12-20T18:14:42.750Z,31.17
2022-12-20T18:17:10.245Z,32.45
2022-12-20T18:19:37.715Z,30.85
2022-12-20T18:22:06.520Z,32.75
2022-12-20T18:24:33.927Z,31.25
2022-12-20T18:27:01.327Z,31.65
2022-12-20T18:29:29.674Z,32.00
2022-12-20T18:31:57.461Z,34.10
2022-12-20T18:34:25.045Z,36.67
2022-12-20T18:36:52.433Z,35.13
2022-12-20T18:39:20.014Z,36.30
2022-12-20T18:41:48.418Z,38.38
2022-12-20T18:44:15.795Z,42.20
2022-12-20T18:46:43.172Z,42.25
2022-12-20T18:49:10.494Z,43.60
2022-12-20T18:51:37.968Z,46.72
2022-12-20T18:54:08.108Z,47.85
2022-12-20T18:56:38.245Z,47.75
2022-12-20T18:59:12.064Z,47.00
2022-12-20T19:01:41.766Z,45.92
2022-12-20T19:04:10.785Z,48.15
2022-12-20T19:06:38.797Z,46.47
2022-12-20T19:09:10.146Z,48.17
2022-12-20T19:11:38.147Z,50.42
2022-12-20T19:14:06.371Z,47.10
2022-12-20T19:16:34.417Z,48.40
2022-12-20T19:19:03.554Z,47.00
2022-12-20T19:21:33.805Z,46.65
2022-12-20T19:24:05.181Z,46.55
2022-12-20T19:26:33.564Z,47.17
2022-12-20T19:29:00.991Z,48.30
2022-12-20T19:31:31.264Z,44.78
2022-12-20T19:34:02.030Z,46.88
2022-12-20T19:36:32.283Z,45.33
2022-12-20T19:39:01.794Z,47.22
2022-12-20T19:41:32.061Z,46.15
2022-12-20T19:43:59.896Z,44.40
2022-12-20T19:46:29.775Z,45.85
2022-12-20T19:48:59.415Z,44.70
2022-12-20T19:51:31.029Z,43.38
2022-12-20T19:53:59.146Z,43.53
2022-12-20T19:56:30.201Z,43.45
2022-12-20T19:58:57.631Z,42.20
2022-12-20T20:01:27.180Z,41.90
2022-12-20T20:03:57.093Z,43.10
2022-12-20T20:06:25.878Z,42.22
2022-12-20T20:08:53.563Z,41.67
2022-12-20T20:11:21.168Z,41.20
2022-12-20T20:13:48.639Z,41.03
2022-12-20T20:16:21.910Z,39.78
2022-12-20T20:18:50.344Z,39.78
2022-12-20T20:21:21.918Z,39.10
2022-12-20T20:23:51.102Z,40.95
2022-12-20T20:26:21.996Z,40.83
2022-12-20T20:28:49.494Z,39.05
2022-12-20T20:31:17.874Z,42.00
2022-12-20T20:33:45.774Z,40.47
2022-12-20T20:36:15.475Z,41.22
2022-12-20T20:38:42.919Z,42.75
2022-12-20T20:41:10.687Z,41.60
2022-12-20T20:43:38.465Z,40.53
2022-12-20T20:46:08.640Z,40.42
2022-12-20T20:48:36.214Z,40.58
2022-12-20T20:51:04.281Z,39.95
2022-12-20T20:53:34.154Z,42.30
2022-12-20T20:56:06.264Z,39.92
2022-12-20T20:58:34.882Z,41.65
2022-12-20T21:01:07.015Z,43.35
2022-12-20T21:03:34.573Z,41.92
2022-12-20T21:08:49.865Z,41.95
2022-12-20T21:11:17.493Z,42.67
2022-12-20T21:13:45.263Z,41.72
2022-12-20T21:16:16.227Z,40.80
2022-12-20T21:18:43.712Z,42.00
2022-12-20T21:21:13.520Z,40.38
2022-12-20T21:23:46.194Z,43.70
2022-12-20T21:26:15.121Z,42.30
2022-12-20T21:28:43.888Z,42.58
2022-12-20T21:31:17.004Z,41.03
2022-12-20T21:33:46.131Z,39.80
2022-12-20T21:36:16.421Z,42.17
2022-12-20T21:38:51.267Z,41.75
2022-12-20T21:41:23.176Z,40.13
2022-12-20T21:43:51.438Z,41.27
2022-12-20T21:46:18.870Z,42.67
2022-12-20T21:48:46.991Z,42.95
2022-12-20T21:51:20.177Z,43.05
2022-12-20T21:53:52.591Z,42.10
2022-12-20T21:56:21.635Z,42.35
2022-12-20T22:01:21.969Z,42.47
2022-12-20T22:04:01.591Z,43.60
2022-12-20T22:06:29.892Z,43.03
2022-12-20T22:08:58.669Z,43.95
2022-12-20T22:11:26.116Z,45.05
2022-12-20T22:13:55.719Z,44.53
2022-12-20T22:16:26.460Z,42.85
2022-12-20T22:18:55.809Z,44.00
2022-12-20T22:21:26.473Z,42.95
2022-12-20T22:23:58.522Z,41.63
2022-12-20T22:26:29.386Z,41.42
2022-12-20T22:29:00.025Z,43.95
2022-12-20T22:31:27.763Z,43.65
2022-12-20T22:33:56.623Z,42.22
2022-12-20T22:36:24.757Z,42.92
2022-12-20T22:38:54.130Z,40.47
2022-12-20T22:41:28.596Z,41.05
2022-12-20T22:43:58.405Z,39.25
2022-12-20T22:46:29.232Z,40.15
2022-12-20T22:48:57.869Z,40.77
2022-12-20T22:51:27.207Z,42.22
2022-12-20T22:54:00.126Z,42.05
2022-12-20T22:56:27.823Z,39.78
2022-12-20T22:58:56.005Z,39.88
2022-12-20T23:01:23.511Z,39.60
2022-12-20T23:03:53.877Z,41.65
2022-12-20T23:06:21.798Z,39.97
2022-12-20T23:08:49.392Z,40.83
2022-12-20T23:11:43.369Z,40.47
2022-12-20T23:14:31.435Z,40.35
2022-12-20T23:16:59.495Z,39.83
2022-12-20T23:19:29.440Z,40.33
2022-12-20T23:22:15.330Z,39.08
2022-12-20T23:24:42.644Z,38.22
2022-12-20T23:27:09.904Z,39.67
2022-12-20T23:29:37.259Z,38.42
2022-12-20T23:32:04.638Z,37.90
2022-12-20T23:34:31.990Z,38.33
2022-12-20T23:36:59.491Z,38.90
2022-12-20T23:39:26.744Z,36.63
2022-12-20T23:41:54.069Z,38.25
2022-12-20T23:44:21.482Z,40.00
2022-12-20T23:46:48.894Z,38.53
2022-12-20T23:49:16.189Z,39.25
2022-12-20T23:51:45.557Z,39.15
2022-12-20T23:54:12.965Z,37.63
2022-12-20T23:56:40.369Z,40.03
2022-12-20T23:59:08.166Z,37.00
